createdAt,value
2019-01-25T00:01:52.186Z,78.13
2019-01-25T00:04:36.643Z,80.17
2019-01-25T00:07:18.043Z,83.07
2019-01-25T00:09:59.348Z,76.07
2019-01-25T00:12:40.025Z,82.03
2019-01-25T00:15:21.584Z,89.27
2019-01-25T00:18:05.941Z,80.50
2019-01-25T00:20:47.080Z,77.90
2019-01-25T00:23:29.205Z,80.47
2019-01-25T00:26:10.651Z,85.07
2019-01-25T00:28:52.276Z,82.83
2019-01-25T00:31:35.413Z,86.03
2019-01-25T00:34:16.769Z,89.07
2019-01-25T00:36:58.230Z,93.17
2019-01-25T00:39:39.895Z,95.60
2019-01-25T00:42:20.858Z,93.23
2019-01-25T00:45:02.140Z,87.37
2019-01-25T00:47:43.558Z,85.30
2019-01-25T00:53:10.635Z,86.97
2019-01-25T00:55:52.662Z,85.50
2019-01-25T01:01:19.808Z,89.40
2019-01-25T01:04:01.405Z,103.27
2019-01-25T01:06:42.974Z,92.33
2019-01-25T01:09:27.866Z,102.37
2019-01-25T01:12:10.094Z,103.30
2019-01-25T01:14:51.975Z,103.50
2019-01-25T01:20:16.237Z,99.10
2019-01-25T01:25:44.022Z,100.63
2019-01-25T01:28:25.560Z,100.70
2019-01-25T01:31:08.545Z,102.90
2019-01-25T01:33:53.091Z,99.27
2019-01-25T01:39:19.347Z,108.77
2019-01-25T01:42:00.195Z,103.07
2019-01-25T01:44:41.704Z,104.80
2019-01-25T01:47:23.615Z,100.37
2019-01-25T01:50:05.959Z,101.90
2019-01-25T01:52:47.353Z,103.53
2019-01-25T01:58:17.421Z,115.70
2019-01-25T02:00:58.691Z,117.87
2019-01-25T02:03:39.567Z,116.57
2019-01-25T02:06:21.848Z,117.50
2019-01-25T02:09:02.708Z,102.57
2019-01-25T02:11:44.495Z,109.97
2019-01-25T02:14:25.762Z,100.23
2019-01-25T02:19:55.234Z,107.10
2019-01-25T02:22:39.122Z,111.43
2019-01-25T02:25:20.291Z,117.27
2019-01-25T02:28:01.663Z,118.03
2019-01-25T02:30:42.720Z,121.13
2019-01-25T02:33:23.564Z,116.50
2019-01-25T02:36:06.013Z,125.10
2019-01-25T02:38:47.646Z,125.23
2019-01-25T02:41:29.610Z,136.20
2019-01-25T02:44:12.961Z,137.73
2019-01-25T02:46:54.791Z,138.37
2019-01-25T02:49:37.155Z,130.40
2019-01-25T02:52:18.659Z,135.63
2019-01-25T02:55:03.563Z,138.70
2019-01-25T02:57:44.963Z,136.90
2019-01-25T03:00:26.189Z,127.83
2019-01-25T03:05:50.863Z,135.60
2019-01-25T03:08:33.966Z,139.90
2019-01-25T03:11:14.922Z,128.57
2019-01-25T03:13:56.622Z,129.90
2019-01-25T03:16:37.362Z,126.70
2019-01-25T03:19:18.929Z,135.87
2019-01-25T03:21:59.887Z,112.23
2019-01-25T03:24:40.636Z,118.90
2019-01-25T03:27:22.496Z,133.83
2019-01-25T03:30:03.851Z,118.83
2019-01-25T03:32:33.403Z,140.10
2019-01-25T03:35:23.861Z,131.97
2019-01-25T03:38:05.454Z,129.73
2019-01-25T03:40:54.765Z,136.67
2019-01-25T03:43:29.814Z,137.40
2019-01-25T03:46:13.236Z,145.37
2019-01-25T03:48:54.538Z,140.80
2019-01-25T03:51:37.439Z,134.80
2019-01-25T03:54:18.518Z,125.13
2019-01-25T03:57:01.883Z,132.27
2019-01-25T03:59:44.394Z,133.37
2019-01-25T04:02:25.774Z,134.73
2019-01-25T04:07:56.488Z,126.77
2019-01-25T04:10:37.870Z,136.97
2019-01-25T04:13:19.661Z,134.50
2019-01-25T04:16:01.116Z,152.27
2019-01-25T04:21:33.979Z,135.47
2019-01-25T04:24:14.949Z,132.77
2019-01-25T04:26:58.152Z,119.80
2019-01-25T04:32:24.421Z,135.53
2019-01-25T04:35:06.172Z,131.60
2019-01-25T04:37:47.083Z,130.77
2019-01-25T04:40:28.256Z,122.33
2019-01-25T04:43:09.701Z,145.60
2019-01-25T04:45:50.502Z,136.77
2019-01-25T04:48:31.217Z,125.17
2019-01-25T04:51:12.782Z,102.47
2019-01-25T04:53:54.863Z,111.37
2019-01-25T04:56:36.484Z,128.70
2019-01-25T04:59:17.581Z,109.23
2019-01-25T05:01:59.190Z,104.40
2019-01-25T05:04:41.635Z,121.03
2019-01-25T05:07:23.231Z,130.43
2019-01-25T05:10:04.420Z,111.00
2019-01-25T05:12:49.023Z,122.13
2019-01-25T05:15:29.266Z,136.37
2019-01-25T05:18:10.841Z,130.33
2019-01-25T05:20:52.255Z,137.23
2019-01-25T05:23:33.831Z,135.37
2019-01-25T05:26:15.490Z,139.67
2019-01-25T05:28:57.873Z,130.60
2019-01-25T05:31:39.307Z,133.03
2019-01-25T05:34:20.939Z,141.13
2019-01-25T05:37:02.667Z,132.60
2019-01-25T05:39:44.016Z,138.27
2019-01-25T05:42:24.978Z,142.17
2019-01-25T05:45:06.630Z,155.13
2019-01-25T05:47:47.317Z,150.43
2019-01-25T05:50:28.153Z,137.13
2019-01-25T05:53:09.982Z,132.07
2019-01-25T05:55:51.336Z,133.93
2019-01-25T05:58:34.932Z,136.03
2019-01-25T06:01:16.750Z,135.40
2019-01-25T06:03:58.989Z,131.20
2019-01-25T06:06:40.309Z,151.23
2019-01-25T06:09:21.971Z,146.67
2019-01-25T06:12:03.122Z,153.43
2019-01-25T06:14:44.610Z,149.53
2019-01-25T06:20:12.020Z,146.40
2019-01-25T06:22:54.652Z,143.30
2019-01-25T06:25:35.574Z,139.83
2019-01-25T06:28:16.514Z,159.83
2019-01-25T06:30:58.283Z,143.93
2019-01-25T06:33:40.309Z,133.83
2019-01-25T06:36:21.777Z,142.70
2019-01-25T06:39:05.341Z,150.80
2019-01-25T06:41:46.799Z,160.17
2019-01-25T06:44:28.944Z,137.20
2019-01-25T06:47:10.305Z,154.43
2019-01-25T06:49:51.366Z,145.20
2019-01-25T06:52:33.318Z,141.17
2019-01-25T06:55:14.750Z,135.13
2019-01-25T07:01:09.945Z,129.33
2019-01-25T07:03:51.489Z,126.27
2019-01-25T07:06:33.208Z,137.87
2019-01-25T07:09:14.754Z,135.03
2019-01-25T07:11:56.554Z,126.37
2019-01-25T07:14:37.747Z,131.20
2019-01-25T07:17:21.103Z,143.97
2019-01-25T07:20:03.011Z,134.97
2019-01-25T07:22:45.069Z,135.67
2019-01-25T07:25:26.386Z,130.37
2019-01-25T07:28:11.009Z,126.73
2019-01-25T07:33:36.923Z,141.03
2019-01-25T07:36:17.924Z,131.00
2019-01-25T07:38:58.683Z,126.90
2019-01-25T07:41:42.220Z,130.63
2019-01-25T07:44:23.771Z,141.97
2019-01-25T07:47:05.008Z,132.73
2019-01-25T07:49:47.753Z,133.33
2019-01-25T07:52:29.277Z,132.00
2019-01-25T07:55:10.894Z,149.17
2019-01-25T07:57:53.038Z,138.73
2019-01-25T08:00:34.537Z,130.07
2019-01-25T08:03:16.040Z,150.77
2019-01-25T08:05:59.366Z,133.67
2019-01-25T08:08:41.143Z,139.90
2019-01-25T08:11:22.935Z,130.33
2019-01-25T08:14:04.272Z,140.37
2019-01-25T08:16:48.384Z,146.90
2019-01-25T08:19:29.804Z,148.53
2019-01-25T08:22:11.244Z,144.70
2019-01-25T08:24:52.951Z,147.83
2019-01-25T08:30:19.762Z,143.00
2019-01-25T08:33:01.169Z,139.53
2019-01-25T08:35:43.011Z,146.83
2019-01-25T08:38:24.169Z,146.80
2019-01-25T08:41:05.821Z,159.07
2019-01-25T08:43:46.906Z,145.90
2019-01-25T08:46:28.964Z,153.17
2019-01-25T08:49:13.157Z,149.77
2019-01-25T08:51:54.221Z,142.23
2019-01-25T08:54:35.395Z,141.80
2019-01-25T08:57:16.378Z,158.00
2019-01-25T08:59:59.470Z,144.83
2019-01-25T09:02:41.450Z,155.20
2019-01-25T09:05:24.442Z,146.03
2019-01-25T09:10:48.450Z,129.00
2019-01-25T09:13:32.056Z,145.10
2019-01-25T09:16:13.560Z,139.17
2019-01-25T09:18:54.465Z,133.27
2019-01-25T09:24:18.917Z,122.63
2019-01-25T09:26:59.991Z,120.37
2019-01-25T09:29:40.873Z,119.37
2019-01-25T09:37:50.617Z,103.30
2019-01-25T09:40:32.018Z,106.73
2019-01-25T09:45:57.147Z,95.93
2019-01-25T09:48:45.934Z,97.10
2019-01-25T09:51:27.569Z,98.93
2019-01-25T09:54:08.695Z,95.40
2019-01-25T09:56:50.454Z,101.33
2019-01-25T09:59:31.908Z,101.27
2019-01-25T10:02:16.180Z,108.93
2019-01-25T10:04:57.293Z,106.33
2019-01-25T10:07:38.634Z,110.37
2019-01-25T10:10:23.411Z,106.80
2019-01-25T10:13:04.174Z,104.73
2019-01-25T10:15:45.479Z,106.80
2019-01-25T10:18:29.850Z,110.17
2019-01-25T10:21:12.631Z,107.40
2019-01-25T10:23:53.676Z,96.63
2019-01-25T10:26:36.273Z,104.40
2019-01-25T10:29:17.078Z,105.33
2019-01-25T10:31:59.362Z,100.43
2019-01-25T10:34:41.527Z,96.40
2019-01-25T10:37:11.007Z,96.87
2019-01-25T10:40:01.497Z,87.10
2019-01-25T10:42:53.086Z,90.13
2019-01-25T10:45:30.821Z,93.50
2019-01-25T10:48:12.313Z,91.20
2019-01-25T10:50:53.830Z,85.27
2019-01-25T10:53:35.195Z,90.63
2019-01-25T10:56:16.580Z,87.60
2019-01-25T10:58:58.605Z,81.17
2019-01-25T11:01:40.108Z,82.93
2019-01-25T11:04:21.697Z,90.73
2019-01-25T11:07:03.524Z,79.53
2019-01-25T11:09:44.818Z,83.57
2019-01-25T11:12:25.868Z,80.73
2019-01-25T11:17:55.407Z,81.33
2019-01-25T11:20:37.694Z,73.13
2019-01-25T11:23:19.823Z,74.63
2019-01-25T11:26:01.397Z,75.27
2019-01-25T11:28:42.129Z,68.90
2019-01-25T11:31:23.324Z,66.60
2019-01-25T11:34:05.250Z,68.63
2019-01-25T11:36:46.118Z,60.00
2019-01-25T11:39:26.797Z,58.07
2019-01-25T11:42:08.319Z,53.53
2019-01-25T11:44:49.921Z,51.00
2019-01-25T11:47:32.085Z,50.77
2019-01-25T11:50:12.941Z,50.67
2019-01-25T11:55:34.222Z,52.10
2019-01-25T11:58:16.513Z,47.30
2019-01-25T12:00:56.393Z,51.13
2019-01-25T12:03:37.914Z,52.23
2019-01-25T12:06:19.339Z,48.00
2019-01-25T12:09:00.170Z,50.70
2019-01-25T12:11:41.932Z,44.40
2019-01-25T12:14:23.337Z,51.70
2019-01-25T12:17:04.543Z,50.37
2019-01-25T12:19:45.593Z,48.30
2019-01-25T12:22:27.182Z,49.80
2019-01-25T12:25:08.827Z,46.40
2019-01-25T12:27:50.096Z,49.47
2019-01-25T12:30:31.915Z,48.70
2019-01-25T12:36:00.433Z,44.00
2019-01-25T12:38:42.021Z,49.77
2019-01-25T12:41:22.029Z,50.37
2019-01-25T12:44:04.096Z,55.17
2019-01-25T12:46:45.811Z,54.17
2019-01-25T12:49:26.922Z,51.60
2019-01-25T12:52:08.644Z,57.17
2019-01-25T12:54:51.119Z,54.37
2019-01-25T12:57:31.950Z,57.20
2019-01-25T13:00:12.409Z,61.10
2019-01-25T13:02:53.086Z,66.23
2019-01-25T13:08:19.704Z,64.00
2019-01-25T13:13:49.910Z,61.53
2019-01-25T13:16:31.009Z,61.07
2019-01-25T13:19:12.717Z,61.10
2019-01-25T13:24:37.947Z,58.77
2019-01-25T13:30:03.185Z,55.77
2019-01-25T13:32:44.826Z,59.63
2019-01-25T13:35:27.151Z,61.13
2019-01-25T13:38:08.379Z,67.03
2019-01-25T13:40:49.640Z,59.40
2019-01-25T13:43:31.372Z,65.23
2019-01-25T13:46:12.795Z,61.87
2019-01-25T13:48:55.343Z,64.97
2019-01-25T13:54:21.651Z,62.10
2019-01-25T13:59:47.022Z,58.37
2019-01-25T14:02:28.775Z,54.10
2019-01-25T14:05:09.869Z,56.83
2019-01-25T14:10:35.995Z,56.97
2019-01-25T14:13:17.914Z,55.13
2019-01-25T14:15:59.089Z,58.70
2019-01-25T14:18:44.844Z,57.30
2019-01-25T14:21:26.417Z,57.30
2019-01-25T14:24:08.815Z,61.73
2019-01-25T14:26:49.812Z,63.83
2019-01-25T14:32:14.366Z,53.83
2019-01-25T14:37:38.919Z,59.17
2019-01-25T14:40:21.121Z,63.03
2019-01-25T14:43:03.183Z,59.13
2019-01-25T14:45:44.790Z,56.97
2019-01-25T14:48:26.690Z,62.13
2019-01-25T14:51:07.718Z,55.27
2019-01-25T14:53:51.070Z,59.43
2019-01-25T14:56:32.807Z,61.07
2019-01-25T14:59:14.210Z,52.63
2019-01-25T15:01:55.647Z,64.70
2019-01-25T15:04:38.287Z,56.30
2019-01-25T15:07:20.517Z,61.17
2019-01-25T15:10:03.438Z,55.50
2019-01-25T15:12:44.959Z,55.83
2019-01-25T15:15:26.476Z,56.43
2019-01-25T15:20:54.032Z,56.17
2019-01-25T15:26:23.192Z,59.23
2019-01-25T15:29:06.074Z,60.70
2019-01-25T15:31:47.654Z,56.97
2019-01-25T15:34:29.129Z,60.57
2019-01-25T15:37:10.904Z,61.07
2019-01-25T15:39:51.934Z,56.73
2019-01-25T15:42:32.706Z,62.67
2019-01-25T15:47:59.901Z,60.60
2019-01-25T15:53:23.801Z,63.30
2019-01-25T15:56:03.545Z,55.57
2019-01-25T16:02:09.967Z,59.83
2019-01-25T16:04:58.531Z,62.13
2019-01-25T16:07:39.786Z,58.40
2019-01-25T16:10:21.718Z,56.90
2019-01-25T16:13:06.305Z,58.53
2019-01-25T16:15:48.018Z,63.47
2019-01-25T16:18:29.597Z,65.03
2019-01-25T16:21:12.652Z,60.37
2019-01-25T16:23:53.913Z,105.47
2019-01-25T16:26:35.142Z,61.20
2019-01-25T16:29:17.648Z,68.47
2019-01-25T16:31:59.525Z,65.83
2019-01-25T16:40:45.071Z,56.53
2019-01-25T16:43:26.430Z,53.80
2019-01-25T16:46:07.587Z,56.53
2019-01-25T16:51:32.533Z,57.53
2019-01-25T16:54:15.848Z,53.43
2019-01-25T16:56:57.012Z,48.13
2019-01-25T17:02:16.306Z,50.73
2019-01-25T17:05:05.976Z,51.03
2019-01-25T17:07:48.468Z,54.00
2019-01-25T17:10:30.796Z,52.17
2019-01-25T17:13:12.385Z,52.03
2019-01-25T17:15:54.398Z,54.03
2019-01-25T17:18:38.951Z,55.17
2019-01-25T17:21:21.747Z,57.97
2019-01-25T17:24:02.800Z,61.83
2019-01-25T17:26:43.577Z,59.87
2019-01-25T17:29:25.230Z,59.23
2019-01-25T17:32:07.883Z,51.70
2019-01-25T17:34:51.988Z,56.30
2019-01-25T17:37:33.137Z,55.53
2019-01-25T17:40:14.528Z,56.87
2019-01-25T17:45:42.978Z,55.97
2019-01-25T17:48:24.250Z,50.50
2019-01-25T17:51:06.267Z,53.13
2019-01-25T17:53:49.181Z,48.63
2019-01-25T17:56:30.235Z,56.03
2019-01-25T17:59:11.511Z,59.07
2019-01-25T18:01:53.288Z,57.63
2019-01-25T18:04:33.906Z,52.73
2019-01-25T18:07:13.743Z,47.07
2019-01-25T18:09:55.190Z,57.37
2019-01-25T18:12:36.832Z,55.97
2019-01-25T18:15:18.404Z,56.17
2019-01-25T18:18:00.043Z,57.23
2019-01-25T18:20:41.591Z,52.50
2019-01-25T18:23:22.646Z,60.13
2019-01-25T18:26:03.600Z,50.23
2019-01-25T18:28:45.096Z,53.07
2019-01-25T18:31:26.416Z,51.63
2019-01-25T18:34:10.280Z,56.80
2019-01-25T18:36:51.969Z,58.37
2019-01-25T18:39:33.583Z,52.27
2019-01-25T18:42:15.078Z,54.53
2019-01-25T18:44:57.028Z,62.03
2019-01-25T18:47:38.465Z,58.57
2019-01-25T18:50:19.223Z,59.60
2019-01-25T18:53:01.749Z,64.20
2019-01-25T18:55:42.992Z,57.83
2019-01-25T18:58:26.231Z,59.67
2019-01-25T19:01:07.309Z,62.57
2019-01-25T19:03:48.273Z,66.77
2019-01-25T19:06:29.616Z,57.90
2019-01-25T19:09:10.617Z,60.50
2019-01-25T19:11:52.561Z,61.57
2019-01-25T19:14:33.808Z,79.80
2019-01-25T19:17:15.293Z,66.23
2019-01-25T19:22:44.737Z,62.50
2019-01-25T19:28:10.475Z,64.23
2019-01-25T19:39:19.207Z,62.00
2019-01-25T19:42:00.286Z,91.20
2019-01-25T19:44:40.908Z,61.77
2019-01-25T19:47:21.556Z,60.70
2019-01-25T19:50:05.915Z,66.10
2019-01-25T19:52:47.742Z,61.50
2019-01-25T19:55:28.712Z,77.93
2019-01-25T19:58:10.419Z,66.63
2019-01-25T20:00:52.333Z,69.53
2019-01-25T20:03:35.976Z,72.47
2019-01-25T20:06:17.493Z,64.47
2019-01-25T20:08:59.325Z,73.13
2019-01-25T20:11:44.351Z,66.77
2019-01-25T20:17:12.307Z,64.13
2019-01-25T20:19:54.139Z,60.30
2019-01-25T20:22:35.459Z,64.73
2019-01-25T20:25:18.156Z,66.40
2019-01-25T20:28:00.680Z,60.77
2019-01-25T20:30:49.545Z,58.20
2019-01-25T20:33:15.132Z,60.67
2019-01-25T20:39:07.904Z,57.43
2019-01-25T20:41:56.669Z,57.90
2019-01-25T20:44:40.095Z,64.90
2019-01-25T20:47:22.116Z,57.30
2019-01-25T20:50:02.648Z,60.57
2019-01-25T20:55:26.882Z,60.03
2019-01-25T21:00:56.982Z,58.37
2019-01-25T21:06:24.814Z,59.07
2019-01-25T21:09:06.892Z,58.57
2019-01-25T21:11:48.119Z,56.67
2019-01-25T21:14:31.095Z,58.03
2019-01-25T21:17:12.668Z,56.60
2019-01-25T21:19:54.930Z,62.47
2019-01-25T21:22:36.720Z,53.63
2019-01-25T21:25:18.941Z,56.13
2019-01-25T21:28:00.492Z,54.83
2019-01-25T21:30:42.294Z,62.93
2019-01-25T21:33:23.263Z,58.30
2019-01-25T21:36:04.692Z,54.83
2019-01-25T21:38:46.804Z,53.70
2019-01-25T21:44:15.994Z,53.37
2019-01-25T21:46:58.293Z,64.80
2019-01-25T21:49:40.822Z,63.90
2019-01-25T21:52:23.580Z,52.93
2019-01-25T21:55:06.349Z,62.37
2019-01-25T21:57:47.924Z,55.97
2019-01-25T22:00:29.318Z,62.17
2019-01-25T22:05:57.087Z,52.90
2019-01-25T22:08:38.626Z,60.43
2019-01-25T22:11:20.373Z,52.53
2019-01-25T22:14:01.895Z,52.97
2019-01-25T22:16:43.702Z,57.80
2019-01-25T22:19:26.374Z,50.87
2019-01-25T22:22:08.765Z,49.07
2019-01-25T22:30:21.552Z,46.13
2019-01-25T22:32:51.621Z,51.07
2019-01-25T22:35:40.090Z,46.63
2019-01-25T22:38:28.515Z,56.43
2019-01-25T22:41:09.494Z,49.87
2019-01-25T22:43:51.803Z,46.10
2019-01-25T22:46:33.175Z,46.10
2019-01-25T22:49:15.526Z,46.80
2019-01-25T22:54:40.669Z,48.60
2019-01-25T22:57:23.147Z,50.40
2019-01-25T23:00:05.760Z,43.53
2019-01-25T23:02:47.103Z,47.10
2019-01-25T23:05:28.487Z,44.67
2019-01-25T23:08:09.293Z,43.10
2019-01-25T23:10:50.479Z,45.83
2019-01-25T23:13:32.267Z,47.20
2019-01-25T23:16:14.273Z,43.07
2019-01-25T23:19:00.879Z,41.17
2019-01-25T23:21:43.775Z,41.43
2019-01-25T23:24:29.138Z,40.60
2019-01-25T23:27:11.510Z,37.57
2019-01-25T23:29:53.231Z,42.60
2019-01-25T23:32:35.243Z,39.70
2019-01-25T23:35:16.322Z,38.07
2019-01-25T23:40:42.903Z,37.07
2019-01-25T23:46:13.916Z,35.87
2019-01-25T23:48:56.359Z,34.27
2019-01-25T23:51:38.895Z,36.93
2019-01-25T23:54:21.680Z,36.73
2019-01-25T23:57:03.968Z,30.97
2019-01-25T23:59:44.930Z,33.07
